Terminal Aerodrome Forecast
Issued by NWS Wichita, KS

Home | Current Version | Previous Version | Text Only | Print | Product List | Glossary On
Versions: 1 2 3 4 5 6 7 8 9 10 11 12 13 14
000
FTUS43 KICT 100900 AAA
TAFICT
TAF AMD
KICT 100916Z 1009/1106 15012KT 6SM -TSRA SCT070CB OVC120
      TEMPO 1009/1011 VRB15G30KT 3SM +TSRA BKN035CB
     FM101300 14014G20KT P6SM SCT080 BKN150
     FM101800 15016G24KT P6SM SCT100
     FM110100 16014G21KT P6SM SKC=

USA.gov is the U.S. government's official web portal to all federal, state and local government web resources and services.